createdAt,value
2019-05-02T00:00:30.010Z,965.97
2019-05-02T00:01:29.691Z,966.03
2019-05-02T00:02:30.097Z,965.94
2019-05-02T00:03:29.780Z,966.00
2019-05-02T00:04:29.883Z,965.94
2019-05-02T00:05:32.157Z,966.02
2019-05-02T00:06:29.812Z,965.93
2019-05-02T00:07:29.747Z,965.99
2019-05-02T00:08:33.158Z,965.89
2019-05-02T00:09:29.758Z,965.92
2019-05-02T00:10:30.006Z,965.92
2019-05-02T00:11:29.768Z,965.87
2019-05-02T00:12:29.777Z,965.87
2019-05-02T00:13:30.526Z,965.89
2019-05-02T00:14:29.764Z,965.86
2019-05-02T00:15:33.050Z,965.92
2019-05-02T00:16:29.854Z,965.86
2019-05-02T00:17:29.834Z,965.91
2019-05-02T00:18:31.936Z,965.88
2019-05-02T00:19:29.846Z,965.85
2019-05-02T00:20:29.816Z,965.90
2019-05-02T00:21:32.949Z,965.82
2019-05-02T00:22:29.756Z,965.93
2019-05-02T00:23:29.906Z,965.87
2019-05-02T00:24:33.971Z,965.82
2019-05-02T00:25:29.827Z,965.83
2019-05-02T00:26:29.838Z,965.88
2019-05-02T00:27:32.855Z,965.84
2019-05-02T00:28:29.855Z,965.86
2019-05-02T00:29:29.956Z,965.82
2019-05-02T00:30:34.365Z,965.80
2019-05-02T00:31:29.964Z,965.83
2019-05-02T00:32:29.737Z,965.78
2019-05-02T00:33:34.493Z,965.81
2019-05-02T00:34:29.764Z,965.80
2019-05-02T00:35:30.175Z,965.93
2019-05-02T00:36:29.799Z,965.85
2019-05-02T00:37:29.814Z,965.83
2019-05-02T00:38:33.442Z,965.89
2019-05-02T00:39:30.924Z,965.81
2019-05-02T00:40:29.929Z,965.92
2019-05-02T00:41:33.239Z,965.86
2019-05-02T00:42:29.846Z,965.88
2019-05-02T00:43:34.427Z,965.79
2019-05-02T00:44:29.868Z,965.82
2019-05-02T00:45:29.868Z,965.78
2019-05-02T00:46:30.310Z,965.84
2019-05-02T00:47:29.803Z,965.84
2019-05-02T00:48:29.937Z,965.87
2019-05-02T00:49:30.764Z,965.83
2019-05-02T00:50:30.155Z,965.85
2019-05-02T00:51:29.875Z,965.86
2019-05-02T00:52:32.883Z,965.90
2019-05-02T00:53:29.798Z,965.86
2019-05-02T00:54:29.812Z,965.83
2019-05-02T00:55:33.897Z,965.83
2019-05-02T00:56:29.801Z,965.81
2019-05-02T00:57:29.985Z,965.82
2019-05-02T00:58:31.969Z,965.86
2019-05-02T00:59:29.948Z,965.80
2019-05-02T01:00:29.914Z,965.73
2019-05-02T01:01:31.076Z,965.80
2019-05-02T01:02:29.818Z,965.77
2019-05-02T01:03:31.906Z,965.82
2019-05-02T01:04:29.812Z,965.84
2019-05-02T01:05:33.735Z,965.83
2019-05-02T01:06:30.045Z,965.83
2019-05-02T01:07:29.912Z,965.82
2019-05-02T01:08:30.928Z,965.79
2019-05-02T01:09:29.905Z,965.87
2019-05-02T01:10:29.895Z,965.82
2019-05-02T01:11:32.204Z,965.77
2019-05-02T01:12:29.826Z,965.85
2019-05-02T01:13:29.839Z,965.86
2019-05-02T01:14:31.723Z,965.89
2019-05-02T01:15:29.979Z,965.88
2019-05-02T01:16:29.885Z,965.87
2019-05-02T01:17:30.981Z,965.89
2019-05-02T01:18:30.075Z,965.88
2019-05-02T01:19:29.994Z,965.86
2019-05-02T01:20:29.921Z,965.86
2019-05-02T01:21:34.062Z,965.88
2019-05-02T01:22:29.869Z,965.86
2019-05-02T01:23:29.800Z,965.84
2019-05-02T01:24:34.090Z,965.80
2019-05-02T01:25:29.961Z,965.78
2019-05-02T01:26:30.607Z,965.88
2019-05-02T01:27:29.862Z,965.89
2019-05-02T01:28:30.018Z,965.78
2019-05-02T01:29:31.694Z,965.92
2019-05-02T01:30:30.148Z,965.97
2019-05-02T01:31:29.878Z,965.90
2019-05-02T01:32:30.305Z,965.83
2019-05-02T01:33:30.066Z,965.87
2019-05-02T01:34:30.175Z,965.86
2019-05-02T01:35:31.612Z,965.96
2019-05-02T01:36:29.939Z,965.96
2019-05-02T01:37:29.917Z,965.84
2019-05-02T01:38:31.709Z,965.92
2019-05-02T01:39:30.015Z,965.90
2019-05-02T01:40:29.917Z,965.86
2019-05-02T01:41:31.071Z,965.86
2019-05-02T01:42:39.643Z,965.86
2019-05-02T01:43:29.972Z,965.87
2019-05-02T01:44:31.129Z,965.82
2019-05-02T01:45:29.817Z,965.88
2019-05-02T01:46:29.884Z,965.84
2019-05-02T01:47:34.149Z,965.88
2019-05-02T01:48:29.943Z,965.81
2019-05-02T01:49:30.050Z,965.87
2019-05-02T01:50:33.557Z,965.79
2019-05-02T01:51:30.095Z,965.91
2019-05-02T01:52:30.088Z,965.81
2019-05-02T01:53:34.221Z,965.79
2019-05-02T01:54:29.988Z,965.93
2019-05-02T01:55:29.854Z,965.83
2019-05-02T01:56:33.185Z,965.74
2019-05-02T01:57:29.941Z,965.82
2019-05-02T01:58:29.912Z,965.84
2019-05-02T01:59:33.846Z,965.77
2019-05-02T02:00:29.789Z,965.82
2019-05-02T02:01:30.179Z,965.80
2019-05-02T02:02:32.853Z,965.82
2019-05-02T02:03:30.131Z,965.87
2019-05-02T02:04:30.070Z,965.78
2019-05-02T02:05:32.218Z,965.85
2019-05-02T02:06:30.006Z,965.78
2019-05-02T02:07:30.011Z,965.78
2019-05-02T02:08:32.638Z,965.84
2019-05-02T02:09:30.120Z,965.79
2019-05-02T02:10:29.918Z,965.80
2019-05-02T02:11:33.778Z,965.80
2019-05-02T02:12:29.875Z,965.80
2019-05-02T02:13:31.265Z,965.77
2019-05-02T02:14:30.016Z,965.81
2019-05-02T02:15:30.278Z,965.82
2019-05-02T02:16:29.985Z,965.81
2019-05-02T02:17:29.925Z,965.79
2019-05-02T02:18:30.017Z,965.85
2019-05-02T02:19:29.807Z,965.81
2019-05-02T02:20:29.807Z,965.81
2019-05-02T02:21:29.993Z,965.80
2019-05-02T02:22:33.933Z,965.86
2019-05-02T02:23:30.073Z,965.76
2019-05-02T02:24:29.926Z,965.75
2019-05-02T02:25:32.150Z,965.76
2019-05-02T02:26:30.052Z,965.76
2019-05-02T02:27:29.875Z,965.76
2019-05-02T02:28:31.984Z,965.78
2019-05-02T02:29:29.954Z,965.68
2019-05-02T02:30:29.909Z,965.75
2019-05-02T02:31:29.884Z,965.77
2019-05-02T02:32:29.934Z,965.76
2019-05-02T02:33:29.955Z,965.79
2019-05-02T02:34:32.308Z,965.75
2019-05-02T02:35:30.043Z,965.73
2019-05-02T02:36:31.519Z,965.68
2019-05-02T02:37:30.044Z,965.74
2019-05-02T02:38:33.562Z,965.77
2019-05-02T02:39:30.027Z,965.73
2019-05-02T02:40:33.828Z,965.65
2019-05-02T02:41:30.175Z,965.78
2019-05-02T02:42:31.739Z,965.73
2019-05-02T02:43:33.432Z,965.73
2019-05-02T02:44:33.849Z,965.71
2019-05-02T02:45:29.896Z,965.70
2019-05-02T02:46:30.841Z,965.62
2019-05-02T02:47:30.082Z,965.71
2019-05-02T02:48:34.041Z,965.76
2019-05-02T02:49:30.012Z,965.71
2019-05-02T02:50:29.989Z,965.70
2019-05-02T02:51:29.889Z,965.68
2019-05-02T02:52:30.011Z,965.69
2019-05-02T02:53:30.017Z,965.75
2019-05-02T02:54:30.069Z,965.64
2019-05-02T02:55:29.928Z,965.71
2019-05-02T02:56:34.577Z,965.75
2019-05-02T02:57:30.070Z,965.68
2019-05-02T02:58:30.031Z,965.64
2019-05-02T02:59:29.971Z,965.65
2019-05-02T03:00:29.998Z,965.67
2019-05-02T03:01:31.296Z,965.65
2019-05-02T03:02:30.180Z,965.62
2019-05-02T03:03:30.643Z,965.72
2019-05-02T03:04:30.027Z,965.67
2019-05-02T03:05:30.072Z,965.62
2019-05-02T03:06:30.075Z,965.57
2019-05-02T03:07:30.019Z,965.65
2019-05-02T03:08:30.033Z,965.61
2019-05-02T03:09:30.133Z,965.64
2019-05-02T03:10:29.949Z,965.71
2019-05-02T03:11:30.097Z,965.67
2019-05-02T03:12:36.209Z,965.73
2019-05-02T03:13:29.994Z,965.68
2019-05-02T03:14:29.938Z,965.71
2019-05-02T03:15:29.950Z,965.73
2019-05-02T03:16:30.116Z,965.65
2019-05-02T03:17:29.916Z,965.67
2019-05-02T03:18:39.847Z,965.67
2019-05-02T03:19:30.001Z,965.67
2019-05-02T03:20:39.894Z,965.69
2019-05-02T03:21:30.072Z,965.70
2019-05-02T03:22:34.976Z,965.78
2019-05-02T03:23:29.958Z,965.73
2019-05-02T03:24:29.934Z,965.78
2019-05-02T03:25:48.999Z,965.77
2019-05-02T03:26:30.016Z,965.77
2019-05-02T03:27:36.856Z,965.75
2019-05-02T03:28:30.003Z,965.75
2019-05-02T03:29:40.062Z,965.76
2019-05-02T03:30:33.073Z,965.70
2019-05-02T03:31:31.455Z,965.82
2019-05-02T03:32:35.272Z,965.79
2019-05-02T03:33:30.023Z,965.82
2019-05-02T03:34:44.834Z,965.83
2019-05-02T03:35:41.846Z,965.81
2019-05-02T03:36:35.478Z,965.78
2019-05-02T03:37:30.089Z,965.75
2019-05-02T03:38:32.746Z,965.73
2019-05-02T03:39:30.061Z,965.75
2019-05-02T03:40:32.252Z,965.82
2019-05-02T03:41:30.060Z,965.75
2019-05-02T03:42:30.199Z,965.77
2019-05-02T03:43:29.952Z,965.81
2019-05-02T03:44:30.072Z,965.71
2019-05-02T03:45:32.269Z,965.77
2019-05-02T03:46:30.018Z,965.76
2019-05-02T03:47:30.073Z,965.67
2019-05-02T03:48:29.945Z,965.74
2019-05-02T03:49:30.047Z,965.66
2019-05-02T03:50:32.873Z,965.70
2019-05-02T03:51:30.024Z,965.69
2019-05-02T03:52:30.056Z,965.70
2019-05-02T03:53:30.190Z,965.69
2019-05-02T03:54:30.069Z,965.76
2019-05-02T03:55:33.266Z,965.73
2019-05-02T03:56:30.075Z,965.71
2019-05-02T03:57:33.185Z,965.73
2019-05-02T03:58:30.000Z,965.62
2019-05-02T03:59:38.264Z,965.66
2019-05-02T04:00:30.176Z,965.67
2019-05-02T04:01:34.854Z,965.61
2019-05-02T04:02:30.030Z,965.59
2019-05-02T04:03:33.849Z,965.61
2019-05-02T04:04:30.370Z,965.63
2019-05-02T04:05:33.823Z,965.60
2019-05-02T04:06:30.100Z,965.59
2019-05-02T04:07:39.747Z,965.61
2019-05-02T04:08:30.145Z,965.63
2019-05-02T04:09:32.099Z,965.70
2019-05-02T04:10:30.029Z,965.69
2019-05-02T04:11:37.822Z,965.71
2019-05-02T04:12:32.847Z,965.69
2019-05-02T04:13:35.642Z,965.73
2019-05-02T04:14:37.753Z,965.72
2019-05-02T04:15:35.012Z,965.82
2019-05-02T04:16:30.058Z,965.75
2019-05-02T04:17:35.408Z,965.82
2019-05-02T04:18:30.000Z,965.79
2019-05-02T04:19:34.953Z,965.81
2019-05-02T04:20:30.078Z,965.69
2019-05-02T04:21:30.045Z,965.73
2019-05-02T04:22:29.981Z,965.78
2019-05-02T04:23:30.037Z,965.72
2019-05-02T04:24:30.076Z,965.73
2019-05-02T04:25:33.973Z,965.68
2019-05-02T04:26:30.086Z,965.79
2019-05-02T04:27:34.038Z,965.74
2019-05-02T04:28:30.021Z,965.78
2019-05-02T04:29:31.094Z,965.80
2019-05-02T04:30:29.990Z,965.80
2019-05-02T04:31:32.275Z,965.80
2019-05-02T04:32:30.041Z,965.77
2019-05-02T04:33:34.672Z,965.78
2019-05-02T04:34:30.021Z,965.86
2019-05-02T04:35:34.954Z,965.82
2019-05-02T04:36:30.046Z,965.91
2019-05-02T04:37:34.417Z,965.88
2019-05-02T04:38:39.223Z,965.90
2019-05-02T04:39:30.141Z,965.87
2019-05-02T04:40:34.921Z,965.82
2019-05-02T04:41:31.784Z,965.89
2019-05-02T04:42:30.023Z,965.88
2019-05-02T04:43:30.048Z,965.89
2019-05-02T04:45:50.966Z,965.91
2019-05-02T04:46:31.266Z,965.88
2019-05-02T04:47:29.916Z,965.92
2019-05-02T04:48:34.836Z,965.92
2019-05-02T04:49:35.067Z,965.93
2019-05-02T04:50:30.091Z,965.89
2019-05-02T04:51:32.058Z,965.93
2019-05-02T04:52:30.069Z,965.87
2019-05-02T04:53:36.877Z,965.88
2019-05-02T04:54:32.298Z,965.80
2019-05-02T04:55:33.244Z,965.87
2019-05-02T04:56:30.021Z,965.90
2019-05-02T04:58:34.799Z,965.92
2019-05-02T04:59:32.908Z,965.89
2019-05-02T05:00:30.034Z,965.94
2019-05-02T05:01:41.502Z,965.99
2019-05-02T05:02:36.448Z,965.92
2019-05-02T05:03:30.019Z,965.92
2019-05-02T05:04:33.192Z,965.86
2019-05-02T05:05:31.386Z,965.91
2019-05-02T05:06:30.061Z,965.95
2019-05-02T05:07:31.234Z,965.85
2019-05-02T05:08:31.926Z,965.95
2019-05-02T05:09:30.119Z,965.90
2019-05-02T05:10:40.269Z,965.94
2019-05-02T05:11:30.077Z,965.95
2019-05-02T05:12:32.575Z,965.91
2019-05-02T05:13:30.305Z,965.92
2019-05-02T05:14:32.844Z,965.90
2019-05-02T05:15:38.327Z,965.98
2019-05-02T05:16:30.139Z,965.94
2019-05-02T05:17:32.957Z,965.94
2019-05-02T05:18:30.115Z,965.92
2019-05-02T05:19:32.795Z,965.97
2019-05-02T05:20:30.114Z,965.92
2019-05-02T05:21:30.224Z,965.96
2019-05-02T05:22:30.074Z,965.93
2019-05-02T05:23:30.145Z,965.95
2019-05-02T05:24:37.399Z,965.94
2019-05-02T05:25:30.051Z,965.90
2019-05-02T05:26:34.022Z,965.94
2019-05-02T05:27:30.138Z,965.96
2019-05-02T05:28:35.026Z,965.85
2019-05-02T05:29:30.049Z,965.98
2019-05-02T05:30:30.064Z,965.87
2019-05-02T05:31:30.085Z,965.90
2019-05-02T05:32:30.308Z,965.95
2019-05-02T05:33:30.127Z,965.93
2019-05-02T05:34:32.776Z,965.94
2019-05-02T05:35:30.259Z,965.94
2019-05-02T05:36:33.920Z,965.99
2019-05-02T05:37:30.048Z,965.97
2019-05-02T05:38:32.638Z,966.05
2019-05-02T05:39:30.092Z,966.02
2019-05-02T05:40:32.017Z,966.07
2019-05-02T05:41:30.073Z,966.04
2019-05-02T05:42:33.188Z,966.10
2019-05-02T05:43:30.237Z,966.01
2019-05-02T05:44:32.582Z,966.09
2019-05-02T05:45:30.173Z,966.09
2019-05-02T05:46:33.309Z,966.08
2019-05-02T05:47:30.129Z,966.10
2019-05-02T05:48:32.017Z,966.07
2019-05-02T05:49:30.140Z,966.06
2019-05-02T05:50:32.306Z,966.04
2019-05-02T05:51:30.023Z,966.06
2019-05-02T05:52:33.179Z,966.03
2019-05-02T05:53:30.224Z,965.95
2019-05-02T05:54:33.072Z,966.01
2019-05-02T05:55:31.613Z,966.02
2019-05-02T05:56:32.530Z,965.92
2019-05-02T05:57:30.131Z,965.98
2019-05-02T05:58:30.227Z,965.96
2019-05-02T05:59:32.057Z,965.95
2019-05-02T06:00:30.473Z,966.01
2019-05-02T06:01:33.938Z,965.92
2019-05-02T06:02:30.121Z,965.96
2019-05-02T06:03:34.041Z,965.93
2019-05-02T06:04:33.203Z,966.01
2019-05-02T06:05:33.212Z,965.94
2019-05-02T06:06:30.186Z,965.96
2019-05-02T06:07:33.670Z,966.00
2019-05-02T06:08:30.145Z,965.94
2019-05-02T06:09:31.289Z,965.95
2019-05-02T06:10:30.248Z,966.00
2019-05-02T06:11:30.341Z,966.00
2019-05-02T06:12:33.186Z,966.00
2019-05-02T06:13:30.131Z,965.99
2019-05-02T06:14:30.247Z,965.97
2019-05-02T06:15:33.969Z,966.06
2019-05-02T06:16:30.293Z,966.02
2019-05-02T06:17:30.463Z,966.04
2019-05-02T06:18:30.216Z,966.01
2019-05-02T06:19:30.299Z,966.09
2019-05-02T06:20:30.583Z,965.97
2019-05-02T06:21:30.131Z,965.99
2019-05-02T06:22:30.178Z,965.97
2019-05-02T06:23:31.079Z,965.97
2019-05-02T06:24:30.208Z,965.99
2019-05-02T06:25:34.009Z,965.95
2019-05-02T06:26:30.182Z,966.01
2019-05-02T06:27:30.471Z,965.91
2019-05-02T06:28:30.225Z,965.93
2019-05-02T06:29:30.242Z,965.96
2019-05-02T06:30:31.033Z,965.93
2019-05-02T06:31:30.110Z,965.97
2019-05-02T06:32:30.262Z,965.90
2019-05-02T06:33:30.838Z,965.88
2019-05-02T06:34:30.294Z,965.90
2019-05-02T06:35:30.266Z,965.95
2019-05-02T06:36:31.911Z,965.98
2019-05-02T06:37:30.311Z,965.99
2019-05-02T06:38:30.438Z,965.95
2019-05-02T06:39:31.872Z,965.87
2019-05-02T06:40:30.252Z,965.94
2019-05-02T06:41:30.122Z,965.83
2019-05-02T06:42:32.735Z,965.81
2019-05-02T06:43:30.142Z,965.82
2019-05-02T06:44:30.302Z,965.86
2019-05-02T06:45:32.224Z,965.87
2019-05-02T06:46:31.177Z,965.78
2019-05-02T06:47:30.270Z,965.75
2019-05-02T06:48:30.248Z,965.82
2019-05-02T06:49:30.260Z,965.87
2019-05-02T06:50:33.351Z,965.85
2019-05-02T06:51:30.216Z,965.83
2019-05-02T06:52:32.870Z,965.75
2019-05-02T06:53:30.208Z,965.77
2019-05-02T06:54:30.232Z,965.83
2019-05-02T06:55:36.179Z,965.80
2019-05-02T06:56:30.331Z,965.77
2019-05-02T06:57:30.138Z,965.74
2019-05-02T06:58:30.247Z,965.73
2019-05-02T06:59:30.292Z,965.80
2019-05-02T07:00:39.589Z,965.79
2019-05-02T07:01:30.192Z,965.72
2019-05-02T07:02:33.595Z,965.77
2019-05-02T07:03:30.246Z,965.71
2019-05-02T07:04:30.387Z,965.66
2019-05-02T07:05:30.220Z,965.78
2019-05-02T07:06:34.810Z,965.66
2019-05-02T07:07:31.344Z,965.68
2019-05-02T07:08:30.297Z,965.68
2019-05-02T07:09:40.342Z,965.64
2019-05-02T07:10:43.420Z,965.69
2019-05-02T07:11:33.315Z,965.59
2019-05-02T07:12:30.164Z,965.57
2019-05-02T07:13:36.320Z,965.51
2019-05-02T07:14:30.248Z,965.56
2019-05-02T07:15:33.555Z,965.56
2019-05-02T07:16:38.072Z,965.56
2019-05-02T07:17:32.052Z,965.54
2019-05-02T07:18:30.161Z,965.53
2019-05-02T07:19:30.450Z,965.52
2019-05-02T07:20:30.191Z,965.56
2019-05-02T07:21:30.457Z,965.51
2019-05-02T07:22:33.181Z,965.43
2019-05-02T07:23:30.344Z,965.40
2019-05-02T07:24:31.041Z,965.40
2019-05-02T07:25:30.293Z,965.36
2019-05-02T07:26:30.335Z,965.32
2019-05-02T07:27:33.591Z,965.35
2019-05-02T07:28:30.272Z,965.40
2019-05-02T07:29:30.382Z,965.41
2019-05-02T07:30:34.936Z,965.37
2019-05-02T07:31:30.218Z,965.37
2019-05-02T07:32:30.323Z,965.35
2019-05-02T07:33:32.255Z,965.33
2019-05-02T07:34:30.283Z,965.33
2019-05-02T07:35:30.282Z,965.28
2019-05-02T07:36:31.291Z,965.35
2019-05-02T07:37:30.203Z,965.28
2019-05-02T07:38:30.240Z,965.26
2019-05-02T07:39:30.229Z,965.29
2019-05-02T07:40:30.297Z,965.29
2019-05-02T07:41:30.355Z,965.31
2019-05-02T07:42:30.372Z,965.21
2019-05-02T07:43:30.288Z,965.22
2019-05-02T07:44:32.537Z,965.18
2019-05-02T07:45:30.277Z,965.19
2019-05-02T07:46:30.306Z,965.16
2019-05-02T07:47:34.527Z,965.22
2019-05-02T07:48:30.237Z,965.12
2019-05-02T07:49:32.280Z,965.17
2019-05-02T07:50:30.408Z,965.13
2019-05-02T07:51:30.341Z,965.13
2019-05-02T07:52:33.616Z,965.14
2019-05-02T07:53:30.266Z,965.16
2019-05-02T07:54:30.375Z,965.19
2019-05-02T07:55:30.909Z,965.14
2019-05-02T07:56:30.302Z,965.14
2019-05-02T07:57:32.255Z,965.10
2019-05-02T07:58:30.453Z,965.12
2019-05-02T07:59:30.547Z,965.08
2019-05-02T08:00:32.168Z,965.09
2019-05-02T08:01:30.338Z,965.10
2019-05-02T08:02:30.328Z,965.05
2019-05-02T08:03:33.444Z,965.06
2019-05-02T08:04:30.266Z,965.07
2019-05-02T08:05:30.378Z,965.05
2019-05-02T08:06:35.242Z,965.16
2019-05-02T08:07:34.298Z,965.08
2019-05-02T08:08:31.846Z,965.10
2019-05-02T08:09:30.279Z,965.06
2019-05-02T08:10:30.402Z,965.02
2019-05-02T08:11:32.226Z,965.03
2019-05-02T08:12:30.335Z,965.01
2019-05-02T08:13:31.504Z,965.01
2019-05-02T08:14:34.613Z,964.99
2019-05-02T08:15:30.344Z,964.99
2019-05-02T08:16:30.408Z,964.99
2019-05-02T08:17:30.484Z,964.99
2019-05-02T08:18:30.819Z,965.08
2019-05-02T08:19:30.339Z,965.04
2019-05-02T08:20:30.435Z,965.04
2019-05-02T08:21:32.485Z,965.09
2019-05-02T08:22:30.437Z,965.05
2019-05-02T08:23:30.277Z,965.02
2019-05-02T08:24:33.115Z,965.05
2019-05-02T08:25:30.299Z,965.08
2019-05-02T08:26:30.405Z,965.04
2019-05-02T08:27:34.561Z,965.11
2019-05-02T08:28:30.429Z,965.05
2019-05-02T08:29:30.739Z,965.04
2019-05-02T08:30:30.339Z,965.05
2019-05-02T08:31:30.384Z,965.03
2019-05-02T08:32:30.383Z,965.07
2019-05-02T08:33:34.908Z,965.01
2019-05-02T08:34:30.477Z,965.06
2019-05-02T08:35:30.325Z,965.03
2019-05-02T08:36:30.521Z,965.06
2019-05-02T08:37:30.427Z,965.04
2019-05-02T08:38:30.307Z,965.05
2019-05-02T08:39:33.774Z,964.99
2019-05-02T08:40:30.410Z,964.96
2019-05-02T08:41:30.417Z,964.93
2019-05-02T08:42:32.550Z,964.99
2019-05-02T08:43:30.312Z,964.91
2019-05-02T08:44:30.332Z,964.94
2019-05-02T08:45:32.987Z,964.88
2019-05-02T08:46:30.457Z,964.98
2019-05-02T08:47:30.538Z,964.98
2019-05-02T08:48:30.373Z,964.96
2019-05-02T08:49:30.531Z,964.94
2019-05-02T08:50:31.921Z,964.88
2019-05-02T08:51:30.434Z,964.95
2019-05-02T08:52:30.437Z,964.91
2019-05-02T08:53:30.352Z,964.91
2019-05-02T08:54:32.776Z,964.87
2019-05-02T08:55:30.384Z,964.79
2019-05-02T08:56:30.436Z,964.89
2019-05-02T08:57:34.511Z,964.82
2019-05-02T08:58:30.363Z,964.90
2019-05-02T08:59:30.502Z,964.86
2019-05-02T09:00:32.075Z,964.80
2019-05-02T09:01:35.296Z,964.81
2019-05-02T09:02:40.789Z,964.79
2019-05-02T09:03:38.866Z,964.85
2019-05-02T09:04:30.749Z,964.76
2019-05-02T09:05:30.466Z,964.70
2019-05-02T09:06:30.439Z,964.82
2019-05-02T09:07:31.618Z,964.72
2019-05-02T09:08:30.434Z,964.76
2019-05-02T09:09:30.367Z,964.85
2019-05-02T09:10:30.506Z,964.82
2019-05-02T09:11:30.371Z,964.73
2019-05-02T09:12:31.990Z,964.72
2019-05-02T09:13:32.866Z,964.75
2019-05-02T09:14:32.179Z,964.77
2019-05-02T09:15:31.745Z,964.68
2019-05-02T09:16:32.689Z,964.62
2019-05-02T09:17:36.075Z,964.73
2019-05-02T09:18:37.873Z,964.76
2019-05-02T09:19:34.567Z,964.75
2019-05-02T09:20:31.887Z,964.62
2019-05-02T09:21:34.233Z,964.71
2019-05-02T09:22:32.703Z,964.64
2019-05-02T09:23:33.266Z,964.66
2019-05-02T09:24:32.441Z,964.68
2019-05-02T09:25:32.424Z,964.62
2019-05-02T09:26:37.821Z,964.71
2019-05-02T09:27:31.855Z,964.71
2019-05-02T09:28:32.084Z,964.71
2019-05-02T09:29:32.586Z,964.63
2019-05-02T09:30:30.394Z,964.61
2019-05-02T09:31:31.977Z,964.62
2019-05-02T09:32:32.271Z,964.53
2019-05-02T09:33:32.238Z,964.57
2019-05-02T09:34:31.879Z,964.59
2019-05-02T09:35:30.360Z,964.56
2019-05-02T09:36:32.306Z,964.51
2019-05-02T09:37:32.128Z,964.60
2019-05-02T09:38:30.425Z,964.57
2019-05-02T09:39:34.929Z,964.60
2019-05-02T09:40:31.900Z,964.54
2019-05-02T09:41:32.482Z,964.57
2019-05-02T09:42:32.354Z,964.52
2019-05-02T09:43:37.428Z,964.42
2019-05-02T09:44:30.523Z,964.49
2019-05-02T09:45:35.796Z,964.54
2019-05-02T09:46:32.330Z,964.41
2019-05-02T09:47:33.074Z,964.47
2019-05-02T09:48:31.909Z,964.44
2019-05-02T09:49:32.362Z,964.41
2019-05-02T09:50:32.239Z,964.47
2019-05-02T09:51:32.305Z,964.39
2019-05-02T09:52:34.067Z,964.40
2019-05-02T09:53:32.330Z,964.42
2019-05-02T09:54:32.234Z,964.37
2019-05-02T09:55:31.803Z,964.44
2019-05-02T09:56:32.398Z,964.38
2019-05-02T09:57:31.929Z,964.38
2019-05-02T09:58:32.085Z,964.37
2019-05-02T09:59:33.143Z,964.39
2019-05-02T10:00:32.296Z,964.41
2019-05-02T10:01:31.728Z,964.33
2019-05-02T10:02:32.431Z,964.36
2019-05-02T10:03:31.869Z,964.40
2019-05-02T10:04:32.521Z,964.26
2019-05-02T10:05:32.240Z,964.25
2019-05-02T10:06:32.148Z,964.25
2019-05-02T10:07:32.364Z,964.28
2019-05-02T10:08:32.054Z,964.19
2019-05-02T10:09:32.279Z,964.24
2019-05-02T10:10:32.388Z,964.27
2019-05-02T10:11:32.185Z,964.34
2019-05-02T10:12:32.122Z,964.26
2019-05-02T10:13:31.838Z,964.17
2019-05-02T10:14:32.408Z,964.14
2019-05-02T10:15:32.554Z,964.23
2019-05-02T10:16:31.915Z,964.34
2019-05-02T10:17:32.208Z,964.31
2019-05-02T10:18:32.848Z,964.20
2019-05-02T10:19:32.538Z,964.16
2019-05-02T10:20:36.159Z,964.23
2019-05-02T10:21:31.812Z,964.28
2019-05-02T10:22:33.778Z,964.29
2019-05-02T10:23:32.144Z,964.18
2019-05-02T10:24:32.258Z,964.15
2019-05-02T10:25:38.308Z,964.11
2019-05-02T10:26:32.857Z,964.15
2019-05-02T10:27:32.273Z,964.11
2019-05-02T10:28:31.741Z,964.15
2019-05-02T10:29:32.741Z,964.17
2019-05-02T10:30:35.076Z,964.11
2019-05-02T10:31:33.408Z,964.05
2019-05-02T10:32:32.382Z,964.02
2019-05-02T10:33:33.699Z,964.04
2019-05-02T10:34:32.804Z,964.09
2019-05-02T10:35:37.448Z,964.03
2019-05-02T10:36:32.556Z,964.06
2019-05-02T10:37:38.009Z,964.11
2019-05-02T10:38:32.479Z,964.11
2019-05-02T10:39:33.976Z,964.06
2019-05-02T10:40:32.164Z,964.01
2019-05-02T10:41:33.527Z,964.10
2019-05-02T10:42:32.443Z,964.04
2019-05-02T10:43:30.405Z,964.06
2019-05-02T10:44:32.777Z,963.98
2019-05-02T10:45:32.048Z,963.97
2019-05-02T10:46:33.435Z,963.99
2019-05-02T10:47:32.309Z,963.95
2019-05-02T10:48:32.932Z,963.96
2019-05-02T10:49:32.061Z,963.83
2019-05-02T10:50:32.748Z,963.93
2019-05-02T10:51:31.622Z,963.92
2019-05-02T10:52:33.981Z,963.84
2019-05-02T10:53:32.198Z,963.88
2019-05-02T10:54:33.877Z,963.79
2019-05-02T10:55:30.556Z,963.80
2019-05-02T10:56:32.430Z,963.76
2019-05-02T10:57:32.531Z,963.69
2019-05-02T10:58:31.994Z,963.71
2019-05-02T10:59:32.628Z,963.59
2019-05-02T11:00:32.454Z,963.76
2019-05-02T11:01:32.336Z,963.68
2019-05-02T11:02:32.604Z,963.62
2019-05-02T11:03:31.959Z,963.65
2019-05-02T11:04:32.350Z,963.67
2019-05-02T11:05:31.581Z,963.58
2019-05-02T11:06:32.357Z,963.61
2019-05-02T11:07:32.502Z,963.65
2019-05-02T11:08:31.918Z,963.63
2019-05-02T11:09:31.907Z,963.63
2019-05-02T11:10:32.326Z,963.66
2019-05-02T11:11:32.238Z,963.72
2019-05-02T11:12:41.035Z,963.76
2019-05-02T11:13:32.250Z,963.82
2019-05-02T11:14:31.898Z,963.73
2019-05-02T11:15:32.509Z,963.75
2019-05-02T11:16:32.141Z,963.68
2019-05-02T11:17:32.352Z,963.68
2019-05-02T11:18:40.201Z,963.72
2019-05-02T11:19:31.817Z,963.56
2019-05-02T11:20:31.858Z,963.62
2019-05-02T11:21:32.193Z,963.69
2019-05-02T11:22:32.134Z,963.51
2019-05-02T11:23:32.752Z,963.56
2019-05-02T11:24:31.628Z,963.63
2019-05-02T11:25:31.942Z,963.70
2019-05-02T11:26:32.492Z,963.54
2019-05-02T11:27:32.755Z,963.58
2019-05-02T11:28:32.353Z,963.57
2019-05-02T11:29:32.209Z,963.56
2019-05-02T11:30:31.992Z,963.57
2019-05-02T11:31:32.470Z,963.60
2019-05-02T11:32:32.565Z,963.55
2019-05-02T11:33:32.461Z,963.52
2019-05-02T11:34:32.493Z,963.57
2019-05-02T11:35:31.928Z,963.51
2019-05-02T11:36:32.626Z,963.48
2019-05-02T11:37:32.333Z,963.50
2019-05-02T11:38:43.514Z,963.55
2019-05-02T11:39:37.095Z,963.58
2019-05-02T11:40:32.161Z,963.58
2019-05-02T11:41:31.775Z,963.49
2019-05-02T11:42:32.351Z,963.53
2019-05-02T11:43:32.517Z,963.50
2019-05-02T11:44:32.476Z,963.50
2019-05-02T11:45:32.345Z,963.49
2019-05-02T11:46:32.869Z,963.45
2019-05-02T11:47:32.708Z,963.46
2019-05-02T11:48:31.982Z,963.51
2019-05-02T11:49:32.027Z,963.45
2019-05-02T11:50:31.980Z,963.41
2019-05-02T11:51:32.599Z,963.44
2019-05-02T11:52:33.017Z,963.36
2019-05-02T11:53:32.530Z,963.33
2019-05-02T11:54:31.961Z,963.33
2019-05-02T11:55:31.912Z,963.26
2019-05-02T11:56:32.984Z,963.25
2019-05-02T11:57:33.019Z,963.26
2019-05-02T11:58:32.522Z,963.25
2019-05-02T11:59:31.953Z,963.26
2019-05-02T12:00:32.375Z,963.29
2019-05-02T12:01:37.112Z,963.31
2019-05-02T12:02:32.008Z,963.30
2019-05-02T12:03:34.553Z,963.25
2019-05-02T12:04:32.565Z,963.24
2019-05-02T12:05:33.801Z,963.24
2019-05-02T12:06:33.305Z,963.29
2019-05-02T12:07:32.349Z,963.30
2019-05-02T12:08:31.904Z,963.32
2019-05-02T12:09:31.965Z,963.32
2019-05-02T12:10:34.796Z,963.27
2019-05-02T12:11:32.355Z,963.37
2019-05-02T12:12:32.479Z,963.38
2019-05-02T12:13:32.313Z,963.32
2019-05-02T12:14:32.835Z,963.33
2019-05-02T12:15:32.373Z,963.31
2019-05-02T12:16:32.310Z,963.40
2019-05-02T12:17:32.553Z,963.36
2019-05-02T12:18:32.580Z,963.27
2019-05-02T12:20:33.902Z,963.40
2019-05-02T12:21:32.493Z,963.51
2019-05-02T12:22:32.472Z,963.42
2019-05-02T12:23:32.048Z,963.45
2019-05-02T12:24:31.930Z,963.52
2019-05-02T12:25:32.768Z,963.60
2019-05-02T12:26:32.447Z,963.46
2019-05-02T12:27:31.824Z,963.58
2019-05-02T12:28:32.389Z,963.60
2019-05-02T12:29:30.648Z,963.71
2019-05-02T12:30:34.151Z,963.80
2019-05-02T12:31:32.455Z,963.71